sensor_id;sensor_type;location;lat;lon;timestamp;P1;durP1;ratioP1;P2;durP2;ratioP2
69434;SDS011;56625;54.322;18.582;2022-09-24T00:01:35;11.10;;;4.00;;
69434;SDS011;56625;54.322;18.582;2022-09-24T00:04:06;10.10;;;3.80;;
69434;SDS011;56625;54.322;18.582;2022-09-24T00:06:38;7.60;;;3.40;;
69434;SDS011;56625;54.322;18.582;2022-09-24T00:09:07;11.20;;;3.90;;
69434;SDS011;56625;54.322;18.582;2022-09-24T00:11:34;8.10;;;3.40;;
69434;SDS011;56625;54.322;18.582;2022-09-24T00:14:01;8.30;;;3.70;;
69434;SDS011;56625;54.322;18.582;2022-09-24T00:16:29;11.00;;;4.00;;
69434;SDS011;56625;54.322;18.582;2022-09-24T00:19:00;8.90;;;3.50;;
69434;SDS011;56625;54.322;18.582;2022-09-24T00:21:35;10.00;;;4.10;;
69434;SDS011;56625;54.322;18.582;2022-09-24T00:24:09;10.10;;;3.90;;
69434;SDS011;56625;54.322;18.582;2022-09-24T00:26:59;7.50;;;3.20;;
69434;SDS011;56625;54.322;18.582;2022-09-24T00:29:28;9.30;;;3.80;;
69434;SDS011;56625;54.322;18.582;2022-09-24T00:31:58;9.70;;;3.50;;
69434;SDS011;56625;54.322;18.582;2022-09-24T00:34:24;9.30;;;3.80;;
69434;SDS011;56625;54.322;18.582;2022-09-24T00:36:51;9.90;;;3.70;;
69434;SDS011;56625;54.322;18.582;2022-09-24T00:39:18;9.60;;;4.50;;
69434;SDS011;56625;54.322;18.582;2022-09-24T00:41:45;10.40;;;4.50;;
69434;SDS011;56625;54.322;18.582;2022-09-24T00:44:41;8.70;;;3.90;;
69434;SDS011;56625;54.322;18.582;2022-09-24T00:47:31;10.20;;;3.80;;
69434;SDS011;56625;54.322;18.582;2022-09-24T00:50:02;9.00;;;4.00;;
69434;SDS011;56625;54.322;18.582;2022-09-24T00:53:07;8.10;;;3.40;;
69434;SDS011;56625;54.322;18.582;2022-09-24T00:55:39;9.10;;;4.20;;
69434;SDS011;56625;54.322;18.582;2022-09-24T00:58:11;8.50;;;3.30;;
69434;SDS011;56625;54.322;18.582;2022-09-24T01:00:41;10.40;;;3.70;;
69434;SDS011;56625;54.322;18.582;2022-09-24T01:03:18;8.10;;;3.60;;
69434;SDS011;56625;54.322;18.582;2022-09-24T01:05:48;8.30;;;3.60;;
69434;SDS011;56625;54.322;18.582;2022-09-24T01:08:18;7.40;;;3.20;;
69434;SDS011;56625;54.322;18.582;2022-09-24T01:32:43;9.10;;;3.40;;
69434;SDS011;56625;54.322;18.582;2022-09-24T01:37:56;7.80;;;3.30;;
69434;SDS011;56625;54.322;18.582;2022-09-24T01:40:29;7.80;;;3.30;;
69434;SDS011;56625;54.322;18.582;2022-09-24T01:42:58;8.10;;;3.30;;
69434;SDS011;56625;54.322;18.582;2022-09-24T01:45:28;8.50;;;3.50;;
69434;SDS011;56625;54.322;18.582;2022-09-24T01:47:58;10.10;;;3.50;;
69434;SDS011;56625;54.322;18.582;2022-09-24T01:50:32;9.60;;;3.30;;
69434;SDS011;56625;54.322;18.582;2022-09-24T01:53:07;9.20;;;3.50;;
69434;SDS011;56625;54.322;18.582;2022-09-24T01:55:45;8.60;;;3.80;;
69434;SDS011;56625;54.322;18.582;2022-09-24T01:58:33;8.60;;;3.50;;
69434;SDS011;56625;54.322;18.582;2022-09-24T02:01:10;8.40;;;3.20;;
69434;SDS011;56625;54.322;18.582;2022-09-24T02:03:50;8.40;;;3.70;;
69434;SDS011;56625;54.322;18.582;2022-09-24T02:06:29;8.20;;;3.10;;
69434;SDS011;56625;54.322;18.582;2022-09-24T02:08:57;7.80;;;3.50;;
69434;SDS011;56625;54.322;18.582;2022-09-24T02:11:25;7.70;;;3.30;;
69434;SDS011;56625;54.322;18.582;2022-09-24T02:14:06;7.60;;;3.50;;
69434;SDS011;56625;54.322;18.582;2022-09-24T02:16:47;8.70;;;3.80;;
69434;SDS011;56625;54.322;18.582;2022-09-24T02:19:18;8.20;;;3.60;;
69434;SDS011;56625;54.322;18.582;2022-09-24T02:21:50;9.40;;;3.70;;
69434;SDS011;56625;54.322;18.582;2022-09-24T02:24:24;9.00;;;3.70;;
69434;SDS011;56625;54.322;18.582;2022-09-24T02:26:58;8.60;;;3.30;;
69434;SDS011;56625;54.322;18.582;2022-09-24T02:29:25;9.50;;;3.70;;
69434;SDS011;56625;54.322;18.582;2022-09-24T02:31:54;10.50;;;3.90;;
69434;SDS011;56625;54.322;18.582;2022-09-24T02:34:29;9.00;;;3.90;;
69434;SDS011;56625;54.322;18.582;2022-09-24T02:37:11;8.70;;;3.70;;
69434;SDS011;56625;54.322;18.582;2022-09-24T02:39:40;8.90;;;3.70;;
69434;SDS011;56625;54.322;18.582;2022-09-24T02:42:09;9.40;;;4.20;;
69434;SDS011;56625;54.322;18.582;2022-09-24T02:44:39;9.00;;;3.90;;
69434;SDS011;56625;54.322;18.582;2022-09-24T02:47:06;8.30;;;3.50;;
69434;SDS011;56625;54.322;18.582;2022-09-24T02:49:33;8.00;;;3.50;;
69434;SDS011;56625;54.322;18.582;2022-09-24T02:51:59;9.60;;;3.50;;
69434;SDS011;56625;54.322;18.582;2022-09-24T02:54:26;8.10;;;3.40;;
69434;SDS011;56625;54.322;18.582;2022-09-24T02:56:53;10.20;;;4.00;;
69434;SDS011;56625;54.322;18.582;2022-09-24T02:59:19;8.90;;;3.60;;
69434;SDS011;56625;54.322;18.582;2022-09-24T03:01:46;9.60;;;4.00;;
69434;SDS011;56625;54.322;18.582;2022-09-24T03:04:13;8.90;;;4.10;;
69434;SDS011;56625;54.322;18.582;2022-09-24T03:06:40;10.00;;;4.40;;
69434;SDS011;56625;54.322;18.582;2022-09-24T03:09:07;9.20;;;3.90;;
69434;SDS011;56625;54.322;18.582;2022-09-24T03:11:37;9.50;;;4.70;;
69434;SDS011;56625;54.322;18.582;2022-09-24T03:14:03;8.90;;;3.90;;
69434;SDS011;56625;54.322;18.582;2022-09-24T03:16:30;9.90;;;4.40;;
69434;SDS011;56625;54.322;18.582;2022-09-24T03:18:58;11.10;;;4.40;;
69434;SDS011;56625;54.322;18.582;2022-09-24T03:21:25;9.90;;;4.80;;
69434;SDS011;56625;54.322;18.582;2022-09-24T03:23:52;9.50;;;4.10;;
69434;SDS011;56625;54.322;18.582;2022-09-24T03:26:18;11.10;;;4.90;;
69434;SDS011;56625;54.322;18.582;2022-09-24T03:28:45;11.90;;;5.10;;
69434;SDS011;56625;54.322;18.582;2022-09-24T03:31:12;9.60;;;5.20;;
69434;SDS011;56625;54.322;18.582;2022-09-24T03:33:47;12.30;;;5.40;;
69434;SDS011;56625;54.322;18.582;2022-09-24T03:36:19;10.90;;;4.90;;
69434;SDS011;56625;54.322;18.582;2022-09-24T03:38:53;9.40;;;4.70;;
69434;SDS011;56625;54.322;18.582;2022-09-24T03:41:24;12.80;;;4.70;;
69434;SDS011;56625;54.322;18.582;2022-09-24T03:43:52;10.60;;;4.40;;
69434;SDS011;56625;54.322;18.582;2022-09-24T03:46:19;11.90;;;4.60;;
69434;SDS011;56625;54.322;18.582;2022-09-24T03:48:46;11.70;;;5.00;;
69434;SDS011;56625;54.322;18.582;2022-09-24T03:51:16;13.30;;;5.40;;
69434;SDS011;56625;54.322;18.582;2022-09-24T03:53:46;10.90;;;5.00;;
69434;SDS011;56625;54.322;18.582;2022-09-24T03:56:14;11.20;;;4.90;;
69434;SDS011;56625;54.322;18.582;2022-09-24T03:58:41;12.20;;;5.00;;
69434;SDS011;56625;54.322;18.582;2022-09-24T04:01:13;12.30;;;4.90;;
69434;SDS011;56625;54.322;18.582;2022-09-24T04:03:44;10.90;;;4.10;;
69434;SDS011;56625;54.322;18.582;2022-09-24T04:06:11;11.20;;;4.70;;
69434;SDS011;56625;54.322;18.582;2022-09-24T04:08:38;10.80;;;4.70;;
69434;SDS011;56625;54.322;18.582;2022-09-24T04:11:04;11.00;;;5.00;;
69434;SDS011;56625;54.322;18.582;2022-09-24T04:13:31;12.50;;;5.10;;
69434;SDS011;56625;54.322;18.582;2022-09-24T04:16:02;14.70;;;6.00;;
69434;SDS011;56625;54.322;18.582;2022-09-24T04:18:29;11.00;;;5.30;;
69434;SDS011;56625;54.322;18.582;2022-09-24T04:20:59;12.80;;;5.50;;
69434;SDS011;56625;54.322;18.582;2022-09-24T04:23:26;10.80;;;5.20;;
69434;SDS011;56625;54.322;18.582;2022-09-24T04:25:57;11.70;;;4.90;;
69434;SDS011;56625;54.322;18.582;2022-09-24T04:28:28;10.20;;;4.40;;
69434;SDS011;56625;54.322;18.582;2022-09-24T04:30:56;9.50;;;4.50;;
69434;SDS011;56625;54.322;18.582;2022-09-24T04:33:23;12.80;;;4.70;;
69434;SDS011;56625;54.322;18.582;2022-09-24T04:35:50;10.30;;;4.30;;
69434;SDS011;56625;54.322;18.582;2022-09-24T04:38:17;11.40;;;4.30;;
69434;SDS011;56625;54.322;18.582;2022-09-24T04:40:44;10.90;;;4.10;;
69434;SDS011;56625;54.322;18.582;2022-09-24T04:43:12;9.80;;;3.60;;
69434;SDS011;56625;54.322;18.582;2022-09-24T04:45:39;8.20;;;3.60;;
69434;SDS011;56625;54.322;18.582;2022-09-24T04:48:08;8.50;;;3.70;;
69434;SDS011;56625;54.322;18.582;2022-09-24T04:50:35;8.00;;;3.70;;
69434;SDS011;56625;54.322;18.582;2022-09-24T04:53:10;8.10;;;3.60;;
69434;SDS011;56625;54.322;18.582;2022-09-24T04:55:37;9.10;;;3.60;;
69434;SDS011;56625;54.322;18.582;2022-09-24T04:58:04;8.40;;;3.90;;
69434;SDS011;56625;54.322;18.582;2022-09-24T05:00:31;10.10;;;3.90;;
69434;SDS011;56625;54.322;18.582;2022-09-24T05:03:00;10.00;;;3.90;;
69434;SDS011;56625;54.322;18.582;2022-09-24T05:05:32;10.10;;;4.10;;
69434;SDS011;56625;54.322;18.582;2022-09-24T05:07:59;9.40;;;3.70;;
69434;SDS011;56625;54.322;18.582;2022-09-24T05:10:28;8.80;;;3.90;;
69434;SDS011;56625;54.322;18.582;2022-09-24T05:12:59;10.80;;;3.80;;
69434;SDS011;56625;54.322;18.582;2022-09-24T05:15:26;8.70;;;3.40;;
69434;SDS011;56625;54.322;18.582;2022-09-24T05:17:52;9.60;;;4.10;;
69434;SDS011;56625;54.322;18.582;2022-09-24T05:20:59;7.90;;;3.30;;
69434;SDS011;56625;54.322;18.582;2022-09-24T05:25:10;8.80;;;3.50;;
69434;SDS011;56625;54.322;18.582;2022-09-24T05:34:10;7.80;;;3.00;;
69434;SDS011;56625;54.322;18.582;2022-09-24T05:41:50;7.50;;;3.30;;
69434;SDS011;56625;54.322;18.582;2022-09-24T05:45:28;9.90;;;3.10;;
69434;SDS011;56625;54.322;18.582;2022-09-24T05:48:32;8.40;;;3.20;;
69434;SDS011;56625;54.322;18.582;2022-09-24T05:51:42;8.50;;;3.50;;
69434;SDS011;56625;54.322;18.582;2022-09-24T05:54:52;10.70;;;3.60;;
69434;SDS011;56625;54.322;18.582;2022-09-24T06:10:11;8.60;;;3.60;;
69434;SDS011;56625;54.322;18.582;2022-09-24T06:13:44;11.10;;;4.10;;
69434;SDS011;56625;54.322;18.582;2022-09-24T06:16:11;9.10;;;3.60;;
69434;SDS011;56625;54.322;18.582;2022-09-24T06:18:40;7.80;;;3.50;;
69434;SDS011;56625;54.322;18.582;2022-09-24T06:21:25;8.90;;;3.70;;
69434;SDS011;56625;54.322;18.582;2022-09-24T06:23:52;14.00;;;4.00;;
69434;SDS011;56625;54.322;18.582;2022-09-24T06:26:19;12.80;;;4.70;;
69434;SDS011;56625;54.322;18.582;2022-09-24T06:29:38;12.30;;;4.20;;
69434;SDS011;56625;54.322;18.582;2022-09-24T06:32:11;11.30;;;4.20;;
69434;SDS011;56625;54.322;18.582;2022-09-24T06:34:37;10.70;;;4.60;;
69434;SDS011;56625;54.322;18.582;2022-09-24T06:37:10;12.10;;;5.00;;
69434;SDS011;56625;54.322;18.582;2022-09-24T06:39:36;12.50;;;4.50;;
69434;SDS011;56625;54.322;18.582;2022-09-24T06:42:03;10.10;;;4.30;;
69434;SDS011;56625;54.322;18.582;2022-09-24T06:44:30;12.00;;;4.70;;
69434;SDS011;56625;54.322;18.582;2022-09-24T06:46:59;12.20;;;5.10;;
69434;SDS011;56625;54.322;18.582;2022-09-24T06:49:29;11.00;;;3.90;;
69434;SDS011;56625;54.322;18.582;2022-09-24T06:52:01;13.30;;;4.70;;
69434;SDS011;56625;54.322;18.582;2022-09-24T06:54:28;10.30;;;4.30;;
69434;SDS011;56625;54.322;18.582;2022-09-24T06:56:54;10.30;;;4.50;;
69434;SDS011;56625;54.322;18.582;2022-09-24T06:59:21;12.60;;;5.00;;
69434;SDS011;56625;54.322;18.582;2022-09-24T07:01:47;13.00;;;4.90;;
69434;SDS011;56625;54.322;18.582;2022-09-24T07:04:14;11.40;;;4.80;;
69434;SDS011;56625;54.322;18.582;2022-09-24T07:06:41;11.60;;;5.20;;
69434;SDS011;56625;54.322;18.582;2022-09-24T07:09:26;10.30;;;4.50;;
69434;SDS011;56625;54.322;18.582;2022-09-24T07:11:53;9.80;;;4.40;;
69434;SDS011;56625;54.322;18.582;2022-09-24T07:14:22;12.20;;;3.90;;
69434;SDS011;56625;54.322;18.582;2022-09-24T07:17:11;12.20;;;4.00;;
69434;SDS011;56625;54.322;18.582;2022-09-24T07:19:38;11.70;;;4.10;;
69434;SDS011;56625;54.322;18.582;2022-09-24T07:22:05;13.60;;;4.70;;
69434;SDS011;56625;54.322;18.582;2022-09-24T07:24:37;10.90;;;4.00;;
69434;SDS011;56625;54.322;18.582;2022-09-24T07:27:05;13.30;;;4.80;;
69434;SDS011;56625;54.322;18.582;2022-09-24T07:29:33;10.90;;;4.50;;
69434;SDS011;56625;54.322;18.582;2022-09-24T07:32:01;11.00;;;4.60;;
69434;SDS011;56625;54.322;18.582;2022-09-24T07:34:29;11.60;;;4.30;;
69434;SDS011;56625;54.322;18.582;2022-09-24T07:36:56;12.70;;;5.00;;
69434;SDS011;56625;54.322;18.582;2022-09-24T07:39:24;10.40;;;4.40;;
69434;SDS011;56625;54.322;18.582;2022-09-24T07:41:51;12.60;;;4.80;;
69434;SDS011;56625;54.322;18.582;2022-09-24T07:44:21;12.30;;;4.80;;
69434;SDS011;56625;54.322;18.582;2022-09-24T07:46:50;12.70;;;4.60;;
69434;SDS011;56625;54.322;18.582;2022-09-24T07:49:17;13.00;;;4.60;;
69434;SDS011;56625;54.322;18.582;2022-09-24T07:51:44;13.50;;;5.60;;
69434;SDS011;56625;54.322;18.582;2022-09-24T07:54:10;10.70;;;4.70;;
69434;SDS011;56625;54.322;18.582;2022-09-24T07:56:42;10.40;;;4.30;;
69434;SDS011;56625;54.322;18.582;2022-09-24T07:59:09;10.40;;;3.50;;
69434;SDS011;56625;54.322;18.582;2022-09-24T08:01:36;10.30;;;3.00;;
69434;SDS011;56625;54.322;18.582;2022-09-24T08:04:03;9.40;;;2.00;;
69434;SDS011;56625;54.322;18.582;2022-09-24T08:06:32;5.00;;;1.70;;
69434;SDS011;56625;54.322;18.582;2022-09-24T08:09:06;6.20;;;1.60;;
69434;SDS011;56625;54.322;18.582;2022-09-24T08:11:33;6.30;;;1.60;;
69434;SDS011;56625;54.322;18.582;2022-09-24T08:14:00;5.20;;;1.40;;
69434;SDS011;56625;54.322;18.582;2022-09-24T08:16:27;5.60;;;2.10;;
69434;SDS011;56625;54.322;18.582;2022-09-24T08:18:57;9.10;;;2.30;;
69434;SDS011;56625;54.322;18.582;2022-09-24T08:21:23;9.10;;;2.20;;
69434;SDS011;56625;54.322;18.582;2022-09-24T08:23:50;6.60;;;2.10;;
69434;SDS011;56625;54.322;18.582;2022-09-24T08:26:17;8.30;;;3.00;;
69434;SDS011;56625;54.322;18.582;2022-09-24T08:28:43;8.80;;;3.40;;
69434;SDS011;56625;54.322;18.582;2022-09-24T08:31:16;13.10;;;3.30;;
69434;SDS011;56625;54.322;18.582;2022-09-24T08:33:43;6.40;;;2.60;;
69434;SDS011;56625;54.322;18.582;2022-09-24T08:36:11;5.80;;;2.20;;
69434;SDS011;56625;54.322;18.582;2022-09-24T08:38:38;7.80;;;3.00;;
69434;SDS011;56625;54.322;18.582;2022-09-24T08:46:46;10.30;;;3.00;;
69434;SDS011;56625;54.322;18.582;2022-09-24T08:49:39;8.50;;;3.00;;
69434;SDS011;56625;54.322;18.582;2022-09-24T08:57:58;7.00;;;2.90;;
69434;SDS011;56625;54.322;18.582;2022-09-24T09:00:28;8.40;;;2.90;;
69434;SDS011;56625;54.322;18.582;2022-09-24T09:03:08;6.90;;;2.60;;
69434;SDS011;56625;54.322;18.582;2022-09-24T09:05:53;7.00;;;2.60;;
69434;SDS011;56625;54.322;18.582;2022-09-24T09:08:48;7.00;;;2.70;;
69434;SDS011;56625;54.322;18.582;2022-09-24T09:11:40;6.20;;;2.30;;
69434;SDS011;56625;54.322;18.582;2022-09-24T09:14:19;7.00;;;2.50;;
69434;SDS011;56625;54.322;18.582;2022-09-24T09:17:02;6.90;;;2.60;;
69434;SDS011;56625;54.322;18.582;2022-09-24T09:19:38;6.00;;;2.20;;
69434;SDS011;56625;54.322;18.582;2022-09-24T09:22:14;5.80;;;2.20;;
69434;SDS011;56625;54.322;18.582;2022-09-24T09:24:51;7.50;;;2.70;;
69434;SDS011;56625;54.322;18.582;2022-09-24T09:27:19;6.90;;;2.70;;
69434;SDS011;56625;54.322;18.582;2022-09-24T09:41:18;6.20;;;2.00;;
69434;SDS011;56625;54.322;18.582;2022-09-24T09:44:01;6.90;;;2.70;;
69434;SDS011;56625;54.322;18.582;2022-09-24T09:46:45;9.00;;;2.60;;
69434;SDS011;56625;54.322;18.582;2022-09-24T09:49:18;6.80;;;2.40;;
69434;SDS011;56625;54.322;18.582;2022-09-24T09:51:47;5.90;;;2.00;;
69434;SDS011;56625;54.322;18.582;2022-09-24T09:54:15;6.30;;;2.30;;
69434;SDS011;56625;54.322;18.582;2022-09-24T09:56:46;7.50;;;3.10;;
69434;SDS011;56625;54.322;18.582;2022-09-24T09:59:20;7.30;;;2.70;;
69434;SDS011;56625;54.322;18.582;2022-09-24T10:01:55;10.10;;;2.50;;
69434;SDS011;56625;54.322;18.582;2022-09-24T10:07:16;7.80;;;2.50;;
69434;SDS011;56625;54.322;18.582;2022-09-24T10:09:44;7.80;;;2.60;;
69434;SDS011;56625;54.322;18.582;2022-09-24T10:12:17;7.20;;;2.80;;
69434;SDS011;56625;54.322;18.582;2022-09-24T10:17:41;9.20;;;3.20;;
69434;SDS011;56625;54.322;18.582;2022-09-24T10:20:28;6.20;;;2.40;;
69434;SDS011;56625;54.322;18.582;2022-09-24T10:23:05;6.60;;;2.50;;
69434;SDS011;56625;54.322;18.582;2022-09-24T10:25:39;6.50;;;2.40;;
69434;SDS011;56625;54.322;18.582;2022-09-24T10:28:07;5.00;;;1.60;;
69434;SDS011;56625;54.322;18.582;2022-09-24T10:31:04;4.80;;;1.30;;
69434;SDS011;56625;54.322;18.582;2022-09-24T10:33:40;5.20;;;1.30;;
69434;SDS011;56625;54.322;18.582;2022-09-24T10:36:20;7.30;;;1.50;;
69434;SDS011;56625;54.322;18.582;2022-09-24T10:39:08;7.00;;;1.80;;
69434;SDS011;56625;54.322;18.582;2022-09-24T10:41:47;4.80;;;1.40;;
69434;SDS011;56625;54.322;18.582;2022-09-24T10:44:15;6.40;;;1.80;;
69434;SDS011;56625;54.322;18.582;2022-09-24T10:50:02;5.70;;;1.80;;
69434;SDS011;56625;54.322;18.582;2022-09-24T10:52:53;5.20;;;1.50;;
69434;SDS011;56625;54.322;18.582;2022-09-24T10:55:43;5.10;;;1.20;;
69434;SDS011;56625;54.322;18.582;2022-09-24T11:01:15;4.10;;;1.00;;
69434;SDS011;56625;54.322;18.582;2022-09-24T11:07:08;4.40;;;1.20;;
69434;SDS011;56625;54.322;18.582;2022-09-24T11:10:22;4.20;;;1.30;;
69434;SDS011;56625;54.322;18.582;2022-09-24T11:31:37;3.90;;;1.00;;
69434;SDS011;56625;54.322;18.582;2022-09-24T11:50:01;5.10;;;1.10;;
69434;SDS011;56625;54.322;18.582;2022-09-24T11:53:03;5.40;;;1.30;;
69434;SDS011;56625;54.322;18.582;2022-09-24T11:55:44;4.90;;;1.20;;
69434;SDS011;56625;54.322;18.582;2022-09-24T11:58:22;3.90;;;1.40;;
69434;SDS011;56625;54.322;18.582;2022-09-24T12:04:40;7.50;;;2.00;;
69434;SDS011;56625;54.322;18.582;2022-09-24T12:06:44;4.50;;;1.40;;
69434;SDS011;56625;54.322;18.582;2022-09-24T12:12:11;4.90;;;1.60;;
69434;SDS011;56625;54.322;18.582;2022-09-24T12:17:56;5.20;;;1.70;;
69434;SDS011;56625;54.322;18.582;2022-09-24T12:20:38;5.60;;;2.10;;
69434;SDS011;56625;54.322;18.582;2022-09-24T12:23:16;6.70;;;1.90;;
69434;SDS011;56625;54.322;18.582;2022-09-24T12:25:47;6.80;;;2.10;;
69434;SDS011;56625;54.322;18.582;2022-09-24T12:28:20;5.20;;;1.80;;
69434;SDS011;56625;54.322;18.582;2022-09-24T12:31:19;6.10;;;1.70;;
69434;SDS011;56625;54.322;18.582;2022-09-24T12:34:41;7.10;;;1.90;;
69434;SDS011;56625;54.322;18.582;2022-09-24T12:37:21;9.50;;;1.90;;
69434;SDS011;56625;54.322;18.582;2022-09-24T12:40:31;7.80;;;2.10;;
69434;SDS011;56625;54.322;18.582;2022-09-24T12:43:26;4.90;;;1.50;;
69434;SDS011;56625;54.322;18.582;2022-09-24T12:46:05;6.10;;;1.70;;
69434;SDS011;56625;54.322;18.582;2022-09-24T12:48:42;5.60;;;2.10;;
69434;SDS011;56625;54.322;18.582;2022-09-24T12:51:11;5.00;;;1.60;;
69434;SDS011;56625;54.322;18.582;2022-09-24T12:53:42;7.30;;;1.80;;
69434;SDS011;56625;54.322;18.582;2022-09-24T12:56:28;6.30;;;2.00;;
69434;SDS011;56625;54.322;18.582;2022-09-24T12:58:56;6.60;;;2.40;;
69434;SDS011;56625;54.322;18.582;2022-09-24T13:06:47;7.00;;;2.50;;
69434;SDS011;56625;54.322;18.582;2022-09-24T13:12:20;8.20;;;2.10;;
69434;SDS011;56625;54.322;18.582;2022-09-24T13:15:04;5.70;;;1.90;;
69434;SDS011;56625;54.322;18.582;2022-09-24T13:17:35;5.70;;;2.10;;
69434;SDS011;56625;54.322;18.582;2022-09-24T13:20:07;6.00;;;2.10;;
69434;SDS011;56625;54.322;18.582;2022-09-24T13:22:56;8.50;;;2.20;;
69434;SDS011;56625;54.322;18.582;2022-09-24T13:25:26;6.20;;;1.70;;
69434;SDS011;56625;54.322;18.582;2022-09-24T13:28:01;7.40;;;1.90;;
69434;SDS011;56625;54.322;18.582;2022-09-24T13:30:49;7.30;;;2.00;;
69434;SDS011;56625;54.322;18.582;2022-09-24T13:33:26;5.60;;;2.20;;
69434;SDS011;56625;54.322;18.582;2022-09-24T13:36:14;6.10;;;1.90;;
69434;SDS011;56625;54.322;18.582;2022-09-24T13:41:58;5.70;;;1.70;;
69434;SDS011;56625;54.322;18.582;2022-09-24T13:44:42;5.30;;;1.70;;
69434;SDS011;56625;54.322;18.582;2022-09-24T13:47:45;5.40;;;1.60;;
69434;SDS011;56625;54.322;18.582;2022-09-24T13:50:45;5.20;;;1.60;;
69434;SDS011;56625;54.322;18.582;2022-09-24T13:53:18;4.70;;;1.40;;
69434;SDS011;56625;54.322;18.582;2022-09-24T13:56:11;6.10;;;1.40;;
69434;SDS011;56625;54.322;18.582;2022-09-24T13:58:40;7.00;;;1.70;;
69434;SDS011;56625;54.322;18.582;2022-09-24T14:01:19;5.80;;;2.00;;
69434;SDS011;56625;54.322;18.582;2022-09-24T14:03:56;6.90;;;2.00;;
69434;SDS011;56625;54.322;18.582;2022-09-24T14:06:38;8.30;;;3.40;;
69434;SDS011;56625;54.322;18.582;2022-09-24T14:09:30;7.70;;;3.10;;
69434;SDS011;56625;54.322;18.582;2022-09-24T14:12:01;9.00;;;2.80;;
69434;SDS011;56625;54.322;18.582;2022-09-24T14:14:50;6.20;;;1.90;;
69434;SDS011;56625;54.322;18.582;2022-09-24T14:17:19;6.70;;;1.70;;
69434;SDS011;56625;54.322;18.582;2022-09-24T14:19:46;5.60;;;1.50;;
69434;SDS011;56625;54.322;18.582;2022-09-24T14:25:02;5.30;;;2.00;;
69434;SDS011;56625;54.322;18.582;2022-09-24T14:27:35;5.60;;;1.90;;
69434;SDS011;56625;54.322;18.582;2022-09-24T14:30:27;5.60;;;2.10;;
69434;SDS011;56625;54.322;18.582;2022-09-24T14:32:59;6.50;;;2.90;;
69434;SDS011;56625;54.322;18.582;2022-09-24T14:35:46;17.00;;;7.10;;
69434;SDS011;56625;54.322;18.582;2022-09-24T14:38:24;7.20;;;2.90;;
69434;SDS011;56625;54.322;18.582;2022-09-24T14:41:13;6.10;;;2.30;;
69434;SDS011;56625;54.322;18.582;2022-09-24T14:43:47;20.90;;;8.80;;
69434;SDS011;56625;54.322;18.582;2022-09-24T14:49:16;10.90;;;4.80;;
69434;SDS011;56625;54.322;18.582;2022-09-24T14:54:36;30.10;;;12.30;;
69434;SDS011;56625;54.322;18.582;2022-09-24T14:59:44;10.10;;;4.20;;
69434;SDS011;56625;54.322;18.582;2022-09-24T15:02:28;9.50;;;4.20;;
69434;SDS011;56625;54.322;18.582;2022-09-24T15:05:06;8.20;;;3.70;;
69434;SDS011;56625;54.322;18.582;2022-09-24T15:07:34;6.90;;;2.80;;
69434;SDS011;56625;54.322;18.582;2022-09-24T15:10:03;8.70;;;2.70;;
69434;SDS011;56625;54.322;18.582;2022-09-24T15:12:33;7.00;;;2.80;;
69434;SDS011;56625;54.322;18.582;2022-09-24T15:15:28;6.90;;;2.40;;
69434;SDS011;56625;54.322;18.582;2022-09-24T15:17:57;7.50;;;2.50;;
69434;SDS011;56625;54.322;18.582;2022-09-24T15:20:23;6.50;;;2.70;;
69434;SDS011;56625;54.322;18.582;2022-09-24T15:22:50;9.30;;;3.20;;
69434;SDS011;56625;54.322;18.582;2022-09-24T15:25:17;8.80;;;3.50;;
69434;SDS011;56625;54.322;18.582;2022-09-24T15:27:44;9.40;;;3.50;;
69434;SDS011;56625;54.322;18.582;2022-09-24T15:30:17;11.10;;;3.30;;
69434;SDS011;56625;54.322;18.582;2022-09-24T15:32:48;9.30;;;3.30;;
69434;SDS011;56625;54.322;18.582;2022-09-24T15:35:15;8.60;;;2.90;;
69434;SDS011;56625;54.322;18.582;2022-09-24T15:37:42;10.40;;;2.70;;
69434;SDS011;56625;54.322;18.582;2022-09-24T15:40:19;7.50;;;2.70;;
69434;SDS011;56625;54.322;18.582;2022-09-24T15:42:49;6.60;;;2.70;;
69434;SDS011;56625;54.322;18.582;2022-09-24T15:45:22;8.50;;;3.40;;
69434;SDS011;56625;54.322;18.582;2022-09-24T15:47:51;9.10;;;3.40;;
69434;SDS011;56625;54.322;18.582;2022-09-24T15:50:20;9.00;;;3.30;;
69434;SDS011;56625;54.322;18.582;2022-09-24T15:52:56;8.50;;;3.40;;
69434;SDS011;56625;54.322;18.582;2022-09-24T15:55:26;13.70;;;4.20;;
69434;SDS011;56625;54.322;18.582;2022-09-24T15:57:53;13.60;;;5.30;;
69434;SDS011;56625;54.322;18.582;2022-09-24T16:00:23;10.80;;;4.60;;
69434;SDS011;56625;54.322;18.582;2022-09-24T16:02:53;12.60;;;4.90;;
69434;SDS011;56625;54.322;18.582;2022-09-24T16:05:23;10.60;;;4.50;;
69434;SDS011;56625;54.322;18.582;2022-09-24T16:07:56;10.10;;;4.10;;
69434;SDS011;56625;54.322;18.582;2022-09-24T16:10:23;8.50;;;4.10;;
69434;SDS011;56625;54.322;18.582;2022-09-24T16:12:50;9.20;;;3.50;;
69434;SDS011;56625;54.322;18.582;2022-09-24T16:15:16;8.60;;;3.50;;
69434;SDS011;56625;54.322;18.582;2022-09-24T16:17:46;11.50;;;6.00;;
69434;SDS011;56625;54.322;18.582;2022-09-24T16:20:15;12.50;;;6.20;;
69434;SDS011;56625;54.322;18.582;2022-09-24T16:22:42;10.90;;;5.90;;
69434;SDS011;56625;54.322;18.582;2022-09-24T16:25:08;18.90;;;9.70;;
69434;SDS011;56625;54.322;18.582;2022-09-24T16:27:35;18.50;;;8.90;;
69434;SDS011;56625;54.322;18.582;2022-09-24T16:30:03;18.70;;;9.40;;
69434;SDS011;56625;54.322;18.582;2022-09-24T16:32:32;18.80;;;8.70;;
69434;SDS011;56625;54.322;18.582;2022-09-24T16:34:59;22.10;;;9.90;;
69434;SDS011;56625;54.322;18.582;2022-09-24T16:37:26;15.80;;;7.30;;
69434;SDS011;56625;54.322;18.582;2022-09-24T16:39:53;11.80;;;5.30;;
69434;SDS011;56625;54.322;18.582;2022-09-24T16:42:21;11.00;;;5.30;;
69434;SDS011;56625;54.322;18.582;2022-09-24T16:44:51;13.20;;;5.70;;
69434;SDS011;56625;54.322;18.582;2022-09-24T16:47:18;15.20;;;5.70;;
69434;SDS011;56625;54.322;18.582;2022-09-24T16:49:46;12.70;;;5.80;;
69434;SDS011;56625;54.322;18.582;2022-09-24T16:52:13;11.70;;;5.40;;
69434;SDS011;56625;54.322;18.582;2022-09-24T16:54:39;11.30;;;4.80;;
69434;SDS011;56625;54.322;18.582;2022-09-24T16:57:06;9.70;;;4.40;;
69434;SDS011;56625;54.322;18.582;2022-09-24T16:59:33;10.60;;;4.50;;
69434;SDS011;56625;54.322;18.582;2022-09-24T17:02:00;12.10;;;5.20;;
69434;SDS011;56625;54.322;18.582;2022-09-24T17:04:27;13.00;;;4.80;;
69434;SDS011;56625;54.322;18.582;2022-09-24T17:06:56;10.70;;;4.90;;
69434;SDS011;56625;54.322;18.582;2022-09-24T17:09:23;9.30;;;4.30;;
69434;SDS011;56625;54.322;18.582;2022-09-24T17:12:08;10.10;;;4.40;;
69434;SDS011;56625;54.322;18.582;2022-09-24T17:14:36;10.90;;;4.80;;
69434;SDS011;56625;54.322;18.582;2022-09-24T17:17:04;9.30;;;4.20;;
69434;SDS011;56625;54.322;18.582;2022-09-24T17:19:32;10.00;;;4.00;;
69434;SDS011;56625;54.322;18.582;2022-09-24T17:21:58;10.10;;;4.50;;
69434;SDS011;56625;54.322;18.582;2022-09-24T17:24:25;11.20;;;4.90;;
69434;SDS011;56625;54.322;18.582;2022-09-24T17:26:52;13.10;;;5.20;;
69434;SDS011;56625;54.322;18.582;2022-09-24T17:29:19;11.30;;;4.80;;
69434;SDS011;56625;54.322;18.582;2022-09-24T17:31:47;16.10;;;8.50;;
69434;SDS011;56625;54.322;18.582;2022-09-24T17:34:14;15.10;;;8.30;;
69434;SDS011;56625;54.322;18.582;2022-09-24T17:36:41;14.00;;;6.60;;
69434;SDS011;56625;54.322;18.582;2022-09-24T17:39:11;14.40;;;6.20;;
69434;SDS011;56625;54.322;18.582;2022-09-24T17:41:38;18.00;;;9.10;;